createdAt,value
2019-01-06T00:01:48.581Z,77.54
2019-01-06T00:04:47.744Z,77.42
2019-01-06T00:07:35.477Z,77.33
2019-01-06T00:10:23.838Z,77.21
2019-01-06T00:13:17.499Z,77.05
2019-01-06T00:16:10.651Z,77.06
2019-01-06T00:19:07.200Z,77.04
2019-01-06T00:21:53.080Z,77.20
2019-01-06T00:24:49.141Z,77.12
2019-01-06T00:27:35.002Z,77.12
2019-01-06T00:30:26.253Z,76.99
2019-01-06T00:33:17.240Z,76.97
2019-01-06T00:36:09.247Z,76.74
2019-01-06T00:39:05.811Z,76.67
2019-01-06T00:42:08.012Z,76.64
2019-01-06T00:44:56.152Z,76.63
2019-01-06T00:47:44.336Z,76.46
2019-01-06T00:50:30.265Z,76.44
2019-01-06T00:53:18.071Z,76.54
2019-01-06T00:56:04.182Z,76.58
2019-01-06T00:59:09.928Z,76.50
2019-01-06T01:01:56.098Z,76.49
2019-01-06T01:04:46.923Z,76.55
2019-01-06T01:07:29.931Z,76.64
2019-01-06T01:10:15.014Z,76.70
2019-01-06T01:13:00.846Z,76.67
2019-01-06T01:15:47.086Z,76.71
2019-01-06T01:18:32.730Z,76.65
2019-01-06T01:21:26.447Z,76.68
2019-01-06T01:24:13.827Z,76.75
2019-01-06T01:27:04.490Z,76.78
2019-01-06T01:29:50.495Z,76.78
2019-01-06T01:32:50.207Z,76.75
2019-01-06T01:35:45.684Z,76.73
2019-01-06T01:38:27.678Z,76.84
2019-01-06T01:41:13.506Z,76.87
2019-01-06T01:44:10.074Z,76.76
2019-01-06T01:46:55.562Z,76.75
2019-01-06T01:49:49.070Z,76.99
2019-01-06T01:52:36.559Z,77.09
2019-01-06T01:55:39.433Z,76.96
2019-01-06T01:58:29.363Z,76.92
2019-01-06T02:01:15.667Z,76.97
2019-01-06T02:04:03.170Z,77.03
2019-01-06T02:07:01.765Z,77.20
2019-01-06T02:09:47.828Z,77.27
2019-01-06T02:12:42.206Z,77.42
2019-01-06T02:15:32.467Z,77.48
2019-01-06T02:18:18.916Z,77.45
2019-01-06T02:21:21.500Z,77.49
2019-01-06T02:24:15.255Z,77.53
2019-01-06T02:27:01.304Z,77.51
2019-01-06T02:29:47.822Z,77.38
2019-01-06T02:32:33.993Z,77.55
2019-01-06T02:35:24.023Z,77.53
2019-01-06T02:38:09.858Z,77.34
2019-01-06T02:41:00.437Z,77.43
2019-01-06T02:43:57.962Z,77.47
2019-01-06T02:46:44.725Z,77.43
2019-01-06T02:49:46.346Z,77.50
2019-01-06T02:52:32.614Z,77.58
2019-01-06T02:55:29.136Z,77.49
2019-01-06T02:58:18.138Z,77.41
2019-01-06T03:00:58.892Z,77.28
2019-01-06T03:03:48.614Z,77.33
2019-01-06T03:06:51.367Z,77.43
2019-01-06T03:09:58.465Z,77.49
2019-01-06T03:12:51.043Z,77.66
2019-01-06T03:15:41.873Z,77.91
2019-01-06T03:18:27.700Z,78.03
2019-01-06T03:21:13.829Z,78.12
2019-01-06T03:24:04.040Z,78.25
2019-01-06T03:26:57.520Z,78.37
2019-01-06T03:29:44.664Z,78.49
2019-01-06T03:32:47.263Z,78.57
2019-01-06T03:35:28.838Z,78.62
2019-01-06T03:38:22.885Z,78.75
2019-01-06T03:41:09.615Z,78.75
2019-01-06T03:43:58.923Z,78.78
2019-01-06T03:46:46.520Z,78.89
2019-01-06T03:49:30.616Z,78.79
2019-01-06T03:52:30.228Z,78.79
2019-01-06T03:55:16.568Z,78.97
2019-01-06T03:58:22.073Z,79.01
2019-01-06T04:01:15.702Z,79.06
2019-01-06T04:03:56.845Z,79.15
2019-01-06T04:06:41.573Z,79.10
2019-01-06T04:09:28.862Z,79.02
2019-01-06T04:12:16.368Z,79.02
2019-01-06T04:14:59.661Z,78.99
2019-01-06T04:18:04.707Z,78.89
2019-01-06T04:20:50.294Z,78.95
2019-01-06T04:23:40.968Z,78.98
2019-01-06T04:26:32.176Z,78.98
2019-01-06T04:29:23.110Z,78.83
2019-01-06T04:32:23.579Z,78.60
2019-01-06T04:35:09.775Z,78.64
2019-01-06T04:37:55.970Z,78.43
2019-01-06T04:40:41.670Z,78.16
2019-01-06T04:43:25.073Z,77.78
2019-01-06T04:46:18.752Z,77.95
2019-01-06T04:49:12.726Z,77.57
2019-01-06T04:52:06.158Z,77.57
2019-01-06T04:55:12.181Z,77.80
2019-01-06T04:58:11.865Z,77.97
2019-01-06T05:00:59.266Z,78.20
2019-01-06T05:03:52.789Z,78.20
2019-01-06T05:06:52.604Z,78.25
2019-01-06T05:09:38.807Z,78.18
2019-01-06T05:12:20.644Z,78.13
2019-01-06T05:15:06.992Z,78.38
2019-01-06T05:17:54.775Z,78.17
2019-01-06T05:20:45.024Z,78.17
2019-01-06T05:23:32.755Z,78.34
2019-01-06T05:26:23.072Z,78.02
2019-01-06T05:29:09.361Z,78.04
2019-01-06T05:31:55.136Z,78.04
2019-01-06T05:34:48.891Z,77.93
2019-01-06T05:37:36.692Z,77.62
2019-01-06T05:40:33.839Z,77.62
2019-01-06T05:43:34.689Z,78.04
2019-01-06T05:46:39.553Z,78.50
2019-01-06T05:49:25.220Z,78.50
2019-01-06T05:52:13.397Z,78.24
2019-01-06T05:55:10.058Z,77.72
2019-01-06T05:57:56.319Z,78.10
2019-01-06T06:00:42.619Z,78.10
2019-01-06T06:03:29.724Z,77.74
2019-01-06T06:06:19.904Z,78.09
2019-01-06T06:09:25.339Z,77.82
2019-01-06T06:12:25.695Z,78.22
2019-01-06T06:15:13.314Z,78.22
2019-01-06T06:18:09.368Z,78.07
2019-01-06T06:21:08.041Z,78.07
2019-01-06T06:24:01.908Z,77.97
2019-01-06T06:26:49.628Z,77.96
2019-01-06T06:29:43.163Z,77.96
2019-01-06T06:32:46.012Z,78.02
2019-01-06T06:35:31.848Z,78.02
2019-01-06T06:38:31.464Z,78.15
2019-01-06T06:41:18.760Z,78.20
2019-01-06T06:44:00.065Z,78.16
2019-01-06T06:46:59.534Z,78.16
2019-01-06T06:49:49.654Z,78.24
2019-01-06T06:52:40.038Z,78.18
2019-01-06T06:55:26.615Z,78.18
2019-01-06T06:58:28.368Z,78.20
2019-01-06T07:02:01.655Z,77.41
2019-01-06T07:04:54.868Z,77.41
2019-01-06T07:07:41.798Z,77.66
2019-01-06T07:10:27.709Z,77.48
2019-01-06T07:13:15.628Z,77.42
2019-01-06T07:16:06.444Z,77.25
2019-01-06T07:18:54.288Z,77.17
2019-01-06T07:21:39.888Z,76.91
2019-01-06T07:24:26.005Z,76.50
2019-01-06T07:27:12.273Z,75.47
2019-01-06T07:29:58.455Z,75.47
2019-01-06T07:32:48.779Z,75.66
2019-01-06T07:35:39.295Z,75.49
2019-01-06T07:38:32.745Z,75.41
2019-01-06T07:41:19.732Z,75.37
2019-01-06T07:44:08.215Z,75.37
2019-01-06T07:46:54.480Z,75.50
2019-01-06T07:49:51.643Z,75.36
2019-01-06T07:52:39.309Z,75.31
2019-01-06T07:55:28.021Z,75.48
2019-01-06T07:58:22.765Z,75.05
2019-01-06T08:01:18.859Z,75.07
2019-01-06T08:04:05.080Z,75.49
2019-01-06T08:06:55.479Z,75.14
2019-01-06T08:09:48.631Z,75.34
2019-01-06T08:12:42.704Z,75.34
2019-01-06T08:15:33.427Z,74.85
2019-01-06T08:18:30.398Z,74.73
2019-01-06T08:21:26.476Z,74.40
2019-01-06T08:24:17.402Z,75.09
2019-01-06T08:27:03.644Z,74.80
2019-01-06T08:29:45.219Z,74.80
2019-01-06T08:32:38.946Z,74.94
2019-01-06T08:35:26.430Z,74.94
2019-01-06T08:38:23.114Z,74.45
2019-01-06T08:41:10.530Z,73.59
2019-01-06T08:44:16.941Z,73.59
2019-01-06T08:47:07.322Z,73.56
2019-01-06T08:49:56.199Z,72.45
2019-01-06T08:52:43.541Z,72.45
2019-01-06T08:55:49.321Z,72.18
2019-01-06T08:58:46.206Z,72.18
2019-01-06T09:01:32.679Z,71.29
2019-01-06T09:04:19.359Z,70.93
2019-01-06T09:07:13.181Z,70.67
2019-01-06T09:10:01.303Z,70.23
2019-01-06T09:13:01.465Z,70.12
2019-01-06T09:15:47.443Z,69.96
2019-01-06T09:18:44.484Z,69.85
2019-01-06T09:21:41.945Z,69.52
2019-01-06T09:24:27.357Z,69.10
2019-01-06T09:27:26.988Z,68.96
2019-01-06T09:30:17.750Z,68.97
2019-01-06T09:33:11.301Z,68.99
2019-01-06T09:36:16.006Z,68.67
2019-01-06T09:39:06.598Z,68.57
2019-01-06T09:41:48.208Z,68.61
2019-01-06T09:44:38.886Z,68.58
2019-01-06T09:47:26.765Z,68.33
2019-01-06T09:50:29.201Z,68.15
2019-01-06T09:53:35.174Z,67.94
2019-01-06T09:56:24.223Z,67.43
2019-01-06T09:59:15.455Z,67.36
2019-01-06T10:02:03.682Z,67.76
2019-01-06T10:04:57.410Z,68.09
2019-01-06T10:07:43.647Z,68.15
2019-01-06T10:10:34.571Z,68.54
2019-01-06T10:13:32.349Z,68.77
2019-01-06T10:16:35.425Z,68.73
2019-01-06T10:19:25.646Z,68.44
2019-01-06T10:22:13.128Z,68.62
2019-01-06T10:25:03.859Z,68.80
2019-01-06T10:27:49.882Z,69.36
2019-01-06T10:30:36.555Z,69.97
2019-01-06T10:33:27.198Z,70.35
2019-01-06T10:36:15.911Z,70.66
2019-01-06T10:39:06.001Z,71.06
2019-01-06T10:42:12.295Z,70.78
2019-01-06T10:44:58.389Z,70.48
2019-01-06T10:47:46.226Z,70.10
2019-01-06T10:50:49.580Z,69.85
2019-01-06T10:53:51.697Z,69.79
2019-01-06T10:56:41.572Z,69.79
2019-01-06T10:59:30.062Z,69.87
2019-01-06T11:02:23.912Z,69.47
2019-01-06T11:05:13.233Z,69.00
2019-01-06T11:08:00.513Z,68.62
2019-01-06T11:11:07.942Z,69.82
2019-01-06T11:14:05.085Z,70.25
2019-01-06T11:16:55.442Z,70.32
2019-01-06T11:19:45.093Z,70.31
2019-01-06T11:22:39.432Z,70.21
2019-01-06T11:25:28.257Z,70.37
2019-01-06T11:28:16.072Z,70.48
2019-01-06T11:31:05.624Z,70.66
2019-01-06T11:33:59.378Z,70.64
2019-01-06T11:36:47.887Z,70.55
2019-01-06T11:39:45.927Z,70.82
2019-01-06T11:42:32.030Z,70.93
2019-01-06T11:45:25.700Z,70.82
2019-01-06T11:48:14.881Z,70.61
2019-01-06T11:51:24.988Z,70.64
2019-01-06T11:54:15.256Z,70.72
2019-01-06T11:57:06.167Z,70.59
2019-01-06T11:59:57.692Z,70.46
2019-01-06T12:02:45.975Z,70.24
2019-01-06T12:05:33.834Z,70.39
2019-01-06T12:08:41.162Z,70.39
2019-01-06T12:11:36.051Z,69.97
2019-01-06T12:14:26.688Z,69.61
2019-01-06T12:17:19.477Z,69.71
2019-01-06T12:20:06.987Z,69.72
2019-01-06T12:22:57.331Z,70.19
2019-01-06T12:25:46.644Z,70.10
2019-01-06T12:28:37.389Z,69.57
2019-01-06T12:31:41.937Z,69.29
2019-01-06T12:34:29.328Z,69.00
2019-01-06T12:37:27.090Z,68.66
2019-01-06T12:40:23.371Z,68.53
2019-01-06T12:43:14.730Z,68.94
2019-01-06T12:46:01.866Z,68.99
2019-01-06T12:48:54.192Z,68.83
2019-01-06T12:51:48.507Z,68.48
2019-01-06T12:54:37.888Z,68.88
2019-01-06T12:57:27.209Z,68.63
2019-01-06T13:00:19.003Z,68.77
2019-01-06T13:03:16.113Z,69.21
2019-01-06T13:06:17.691Z,69.57
2019-01-06T13:09:06.158Z,69.65
2019-01-06T13:11:59.040Z,69.96
2019-01-06T13:14:46.254Z,70.03
2019-01-06T13:17:47.066Z,70.22
2019-01-06T13:20:43.380Z,70.31
2019-01-06T13:23:44.093Z,70.37
2019-01-06T13:26:29.904Z,70.51
2019-01-06T13:29:39.039Z,71.01
2019-01-06T13:32:25.640Z,71.03
2019-01-06T13:35:14.872Z,71.28
2019-01-06T13:38:04.407Z,71.30
2019-01-06T13:40:58.479Z,71.48
2019-01-06T13:43:44.906Z,71.42
2019-01-06T13:46:31.688Z,71.34
2019-01-06T13:49:29.147Z,71.17
2019-01-06T13:52:36.465Z,71.20
2019-01-06T13:55:23.464Z,71.10
2019-01-06T13:58:17.028Z,70.94
2019-01-06T14:01:04.814Z,70.85
2019-01-06T14:03:54.010Z,70.74
2019-01-06T14:06:46.513Z,71.20
2019-01-06T14:09:34.561Z,71.71
2019-01-06T14:12:23.148Z,72.17
2019-01-06T14:15:13.041Z,72.41
2019-01-06T14:18:08.415Z,72.32
2019-01-06T14:21:04.136Z,72.59
2019-01-06T14:23:52.999Z,72.76
2019-01-06T14:26:47.578Z,72.92
2019-01-06T14:29:34.417Z,73.18
2019-01-06T14:32:22.517Z,73.35
2019-01-06T14:35:18.281Z,73.31
2019-01-06T14:38:12.025Z,73.37
2019-01-06T14:41:03.874Z,73.31
2019-01-06T14:44:05.685Z,73.37
2019-01-06T14:46:52.785Z,73.23
2019-01-06T14:49:43.708Z,73.12
2019-01-06T14:52:30.416Z,73.25
2019-01-06T14:55:16.591Z,73.23
2019-01-06T14:58:09.826Z,72.99
2019-01-06T15:01:06.905Z,72.86
2019-01-06T15:04:12.426Z,73.06
2019-01-06T15:07:06.574Z,73.10
2019-01-06T15:10:03.028Z,73.10
2019-01-06T15:12:54.902Z,73.15
2019-01-06T15:15:57.547Z,73.19
2019-01-06T15:18:44.532Z,73.16
2019-01-06T15:21:33.772Z,73.02
2019-01-06T15:24:19.687Z,73.07
2019-01-06T15:27:05.711Z,73.14
2019-01-06T15:29:51.823Z,73.26
2019-01-06T15:32:36.321Z,73.23
2019-01-06T15:35:27.909Z,73.27
2019-01-06T15:38:16.695Z,73.37
2019-01-06T15:41:03.109Z,73.56
2019-01-06T15:43:48.982Z,73.79
2019-01-06T15:46:48.004Z,74.24
2019-01-06T15:49:34.412Z,74.85
2019-01-06T15:52:21.613Z,75.24
2019-01-06T15:55:07.688Z,75.40
2019-01-06T15:58:10.613Z,75.37
2019-01-06T16:01:03.290Z,75.21
2019-01-06T16:03:52.167Z,75.19
2019-01-06T16:06:57.529Z,75.50
2019-01-06T16:09:49.790Z,75.69
2019-01-06T16:12:49.675Z,75.80
2019-01-06T16:15:42.589Z,75.82
2019-01-06T16:18:39.469Z,75.87
2019-01-06T16:21:28.129Z,75.91
2019-01-06T16:24:18.008Z,75.80
2019-01-06T16:27:17.369Z,75.69
2019-01-06T16:30:05.994Z,75.62
2019-01-06T16:32:52.122Z,75.46
2019-01-06T16:35:40.595Z,75.52
2019-01-06T16:38:28.741Z,75.54
2019-01-06T16:41:17.719Z,75.73
2019-01-06T16:44:16.231Z,75.80
2019-01-06T16:47:13.249Z,75.83
2019-01-06T16:50:19.282Z,76.06
2019-01-06T16:53:06.884Z,75.93
2019-01-06T16:56:11.561Z,75.91
2019-01-06T16:58:55.936Z,75.91
2019-01-06T17:01:42.197Z,75.89
2019-01-06T17:04:29.656Z,75.86
2019-01-06T17:07:17.561Z,75.83
2019-01-06T17:10:12.952Z,75.78
2019-01-06T17:13:04.152Z,75.74
2019-01-06T17:15:52.919Z,75.64
2019-01-06T17:18:57.789Z,75.65
2019-01-06T17:21:50.981Z,75.63
2019-01-06T17:24:39.236Z,75.61
2019-01-06T17:27:31.190Z,75.67
2019-01-06T17:30:28.715Z,75.59
2019-01-06T17:33:14.987Z,75.42
2019-01-06T17:36:04.373Z,75.34
2019-01-06T17:39:03.003Z,75.49
2019-01-06T17:41:49.333Z,75.42
2019-01-06T17:44:36.478Z,75.44
2019-01-06T17:47:25.039Z,75.35
2019-01-06T17:50:13.062Z,75.43
2019-01-06T17:53:08.398Z,75.40
2019-01-06T17:55:55.493Z,75.35
2019-01-06T18:02:22.729Z,75.17
2019-01-06T18:05:13.551Z,75.15
2019-01-06T18:08:09.019Z,75.10
2019-01-06T18:10:55.571Z,74.98
2019-01-06T18:13:42.604Z,74.87
2019-01-06T18:16:36.586Z,74.90
2019-01-06T18:19:23.675Z,74.89
2019-01-06T18:22:11.551Z,74.69
2019-01-06T18:25:03.337Z,74.63
2019-01-06T18:27:51.620Z,74.58
2019-01-06T18:30:54.594Z,74.62
2019-01-06T18:33:42.665Z,74.70
2019-01-06T18:36:34.607Z,74.78
2019-01-06T18:39:24.384Z,74.93
2019-01-06T18:42:21.777Z,75.10
2019-01-06T18:45:13.158Z,75.24
2019-01-06T18:48:16.122Z,75.27
2019-01-06T18:51:07.449Z,75.31
2019-01-06T18:54:01.571Z,75.41
2019-01-06T18:57:01.810Z,75.26
2019-01-06T18:59:59.826Z,75.39
2019-01-06T19:02:47.384Z,75.46
2019-01-06T19:05:54.972Z,75.41
2019-01-06T19:09:10.257Z,75.58
2019-01-06T19:12:06.767Z,75.49
2019-01-06T19:14:54.484Z,75.55
2019-01-06T19:17:43.141Z,75.55
2019-01-06T19:20:32.528Z,75.54
2019-01-06T19:23:23.076Z,75.59
2019-01-06T19:26:18.505Z,75.54
2019-01-06T19:29:06.532Z,75.64
2019-01-06T19:31:58.668Z,75.87
2019-01-06T19:34:53.032Z,76.12
2019-01-06T19:37:36.735Z,76.41
2019-01-06T19:40:27.786Z,76.72
2019-01-06T19:43:28.147Z,76.94
2019-01-06T19:46:28.575Z,77.08
2019-01-06T19:49:19.288Z,77.36
2019-01-06T19:52:22.541Z,77.56
2019-01-06T19:55:18.898Z,77.88
2019-01-06T19:58:09.153Z,78.15
2019-01-06T20:01:06.091Z,78.46
2019-01-06T20:04:05.562Z,78.71
2019-01-06T20:06:52.447Z,78.81
2019-01-06T20:09:42.649Z,79.05
2019-01-06T20:12:44.783Z,79.38
2019-01-06T20:15:41.154Z,79.74
2019-01-06T20:18:27.655Z,80.07
2019-01-06T20:21:13.437Z,80.22
2019-01-06T20:24:13.189Z,80.53
2019-01-06T20:26:55.471Z,80.86
2019-01-06T20:29:43.171Z,81.05
2019-01-06T20:32:42.929Z,81.00
2019-01-06T20:35:39.354Z,81.05
2019-01-06T20:38:35.710Z,81.12
2019-01-06T20:41:30.549Z,81.25
2019-01-06T20:44:18.031Z,81.24
2019-01-06T20:47:04.156Z,81.31
2019-01-06T20:50:09.487Z,81.27
2019-01-06T20:53:00.112Z,81.22
2019-01-06T20:55:54.317Z,81.26
2019-01-06T20:58:42.230Z,81.18
2019-01-06T21:01:28.403Z,81.14
2019-01-06T21:04:21.750Z,81.10
2019-01-06T21:07:10.211Z,81.01
2019-01-06T21:10:02.625Z,80.89
2019-01-06T21:12:54.778Z,80.78
2019-01-06T21:15:45.643Z,80.51
2019-01-06T21:18:32.333Z,80.30
2019-01-06T21:21:20.253Z,80.14
2019-01-06T21:24:04.738Z,79.95
2019-01-06T21:26:58.850Z,79.74
2019-01-06T21:29:44.926Z,79.49
2019-01-06T21:32:33.660Z,79.34
2019-01-06T21:35:21.083Z,79.20
2019-01-06T21:38:23.911Z,79.03
2019-01-06T21:41:11.469Z,78.81
2019-01-06T21:43:53.419Z,78.77
2019-01-06T21:46:48.175Z,78.61
2019-01-06T21:49:34.261Z,78.53
2019-01-06T21:52:20.407Z,78.60
2019-01-06T21:55:09.625Z,78.55
2019-01-06T21:57:47.395Z,78.49
2019-01-06T22:00:43.956Z,78.58
2019-01-06T22:03:29.813Z,78.73
2019-01-06T22:06:31.970Z,78.68
2019-01-06T22:09:28.334Z,78.76
2019-01-06T22:12:33.723Z,78.78
2019-01-06T22:15:28.475Z,78.70
2019-01-06T22:18:19.069Z,78.67
2019-01-06T22:21:04.851Z,78.58
2019-01-06T22:23:52.387Z,78.69
2019-01-06T22:26:28.934Z,78.73
2019-01-06T22:29:09.042Z,78.63
2019-01-06T22:32:00.343Z,78.66
2019-01-06T22:34:56.955Z,78.70
2019-01-06T22:37:47.620Z,78.65
2019-01-06T22:40:38.837Z,78.67
2019-01-06T22:43:25.991Z,78.60
2019-01-06T22:46:11.756Z,78.43
2019-01-06T22:49:02.483Z,78.59
2019-01-06T22:51:48.006Z,78.71
2019-01-06T22:54:37.686Z,78.59
2019-01-06T22:57:36.907Z,78.51
2019-01-06T23:00:28.518Z,78.49
2019-01-06T23:03:14.286Z,78.36
2019-01-06T23:06:07.941Z,78.38
2019-01-06T23:08:53.857Z,78.42
2019-01-06T23:11:45.015Z,78.39
2019-01-06T23:14:24.885Z,78.32
2019-01-06T23:17:15.224Z,78.42
2019-01-06T23:20:08.730Z,78.42
2019-01-06T23:22:55.188Z,78.48
2019-01-06T23:25:33.291Z,78.41
2019-01-06T23:28:19.336Z,78.30
2019-01-06T23:31:06.798Z,78.32
2019-01-06T23:33:52.886Z,78.45
2019-01-06T23:36:43.498Z,78.39
2019-01-06T23:39:34.201Z,78.29
2019-01-06T23:42:27.719Z,78.20
2019-01-06T23:45:26.713Z,78.20
2019-01-06T23:48:25.785Z,78.41
2019-01-06T23:51:26.967Z,78.21
2019-01-06T23:54:19.199Z,78.25
2019-01-06T23:57:19.064Z,77.96
